Time;durP1;ratioP1;P1;durP2;ratioP2;P2;SDS_P1;SDS_P2;PMS_P1;PMS_P2;Temp;Humidity;BMP_temperature;BMP_pressure;BME280_temperature;BME280_humidity;BME280_pressure;Samples;Min_cycle;Max_cycle;Signal;HPM_P1;HPM_P2
2021/03/26 00:01:53;;;;;;;58.60;34.80;;;9.30;99.90;;;;;;5031489;28;20442;-70
2021/03/26 00:04:19;;;;;;;67.00;36.00;;;9.30;99.90;;;;;;5022907;28;20470;-69
2021/03/26 00:06:48;;;;;;;62.97;35.90;;;9.20;99.90;;;;;;5031060;28;20414;-70
2021/03/26 00:09:18;;;;;;;59.33;35.70;;;9.20;99.90;;;;;;5031629;28;20421;-70
2021/03/26 00:11:46;;;;;;;56.13;36.30;;;9.10;99.90;;;;;;5031228;28;20418;-69
2021/03/26 00:14:12;;;;;;;61.93;37.73;;;9.10;99.90;;;;;;5031592;28;20411;-71
2021/03/26 00:16:38;;;;;;;61.70;37.70;;;9.00;99.90;;;;;;5031489;28;20421;-70
2021/03/26 00:19:04;;;;;;;62.03;37.37;;;9.00;99.90;;;;;;5031638;28;20450;-71
2021/03/26 00:21:29;;;;;;;56.50;35.73;;;8.90;99.90;;;;;;5031414;28;20193;-70
2021/03/26 00:23:55;;;;;;;60.03;34.67;;;8.90;99.90;;;;;;5031859;28;20277;-70
2021/03/26 00:26:21;;;;;;;57.90;36.20;;;8.90;99.90;;;;;;5014697;28;20200;-72
2021/03/26 00:28:47;;;;;;;58.83;35.83;;;8.80;99.90;;;;;;5011785;28;20207;-72
2021/03/26 00:31:13;;;;;;;60.63;37.50;;;8.80;99.90;;;;;;5011875;28;20474;-71
2021/03/26 00:33:38;;;;;;;57.00;33.87;;;8.80;99.90;;;;;;5016553;28;20176;-70
2021/03/26 00:36:04;;;;;;;53.80;33.80;;;8.70;99.90;;;;;;5031458;28;20710;-71
2021/03/26 00:38:30;;;;;;;56.20;35.53;;;8.70;99.90;;;;;;5031206;28;20245;-71
2021/03/26 00:40:55;;;;;;;65.13;36.87;;;8.70;99.90;;;;;;5031493;28;20195;-70
2021/03/26 00:43:21;;;;;;;60.30;36.03;;;8.70;99.90;;;;;;5024807;28;20184;-70
2021/03/26 00:45:47;;;;;;;56.87;33.60;;;8.70;99.90;;;;;;5030829;28;20203;-70
2021/03/26 00:48:13;;;;;;;58.47;35.97;;;8.70;99.90;;;;;;5030974;28;20410;-70
2021/03/26 00:50:45;;;;;;;54.20;34.33;;;8.60;99.90;;;;;;5026385;28;20271;-70
2021/03/26 00:53:21;;;;;;;60.13;36.60;;;8.60;99.90;;;;;;5029014;28;20419;-70
2021/03/26 00:55:47;;;;;;;60.60;36.80;;;8.60;99.90;;;;;;5031418;28;20426;-70
2021/03/26 00:58:12;;;;;;;63.17;34.97;;;8.60;99.90;;;;;;5030712;28;20407;-71
2021/03/26 01:00:39;;;;;;;62.80;36.00;;;8.50;99.90;;;;;;5013977;28;20513;-71
2021/03/26 01:03:06;;;;;;;64.13;37.33;;;8.50;99.90;;;;;;5031223;28;20167;-70
2021/03/26 01:05:35;;;;;;;68.20;39.77;;;8.40;99.90;;;;;;5031130;28;20889;-71
2021/03/26 01:08:02;;;;;;;57.07;34.13;;;8.40;99.90;;;;;;5030985;28;20441;-72
2021/03/26 01:10:32;;;;;;;59.03;35.67;;;8.30;99.90;;;;;;5031123;28;20431;-71
2021/03/26 01:12:59;;;;;;;56.53;37.33;;;8.30;99.90;;;;;;5031226;28;20416;-72
2021/03/26 01:15:26;;;;;;;66.30;37.10;;;8.20;99.90;;;;;;5030855;28;20418;-72
2021/03/26 01:17:54;;;;;;;57.33;37.60;;;8.30;99.90;;;;;;5031864;28;20505;-72
2021/03/26 01:20:23;;;;;;;56.10;36.30;;;8.30;99.90;;;;;;5034466;28;20438;-71
2021/03/26 01:22:49;;;;;;;61.83;35.30;;;8.30;99.90;;;;;;5034875;28;20517;-72
2021/03/26 01:25:20;;;;;;;62.93;38.30;;;8.20;99.90;;;;;;5034750;28;20545;-72
2021/03/26 01:27:46;;;;;;;61.47;37.83;;;8.30;99.90;;;;;;5034365;28;20172;-72
2021/03/26 01:30:14;;;;;;;55.40;35.90;;;8.30;99.90;;;;;;5034453;28;20438;-72
2021/03/26 01:32:39;;;;;;;52.73;35.43;;;8.40;99.90;;;;;;5034762;28;20263;-71
2021/03/26 01:35:06;;;;;;;66.57;35.80;;;8.40;99.90;;;;;;5034645;28;20497;-72
2021/03/26 01:37:33;;;;;;;61.17;35.93;;;8.40;99.90;;;;;;5034061;28;20214;-70
2021/03/26 01:39:59;;;;;;;64.23;40.10;;;8.50;99.90;;;;;;5034347;28;20412;-70
2021/03/26 01:42:31;;;;;;;60.60;38.27;;;8.50;99.90;;;;;;5034228;28;20406;-70
2021/03/26 01:44:58;;;;;;;57.93;35.53;;;8.60;99.90;;;;;;5027174;28;20275;-71
2021/03/26 01:47:26;;;;;;;59.40;35.47;;;8.60;99.90;;;;;;5034480;28;20929;-71
2021/03/26 01:49:51;;;;;;;60.23;36.03;;;8.60;99.90;;;;;;5034776;28;20922;-71
2021/03/26 01:52:17;;;;;;;53.63;33.23;;;8.70;99.90;;;;;;5034594;28;20575;-72
2021/03/26 01:54:42;;;;;;;54.00;32.10;;;8.80;99.90;;;;;;5034787;28;20310;-71
2021/03/26 01:57:08;;;;;;;54.40;34.20;;;8.80;99.90;;;;;;5049198;28;20169;-73
2021/03/26 01:59:34;;;;;;;54.73;35.87;;;8.80;99.90;;;;;;5048465;28;20203;-72
2021/03/26 02:02:06;;;;;;;54.67;32.93;;;8.80;99.90;;;;;;5044486;28;20657;-71
2021/03/26 02:04:37;;;;;;;50.20;31.83;;;8.90;99.90;;;;;;5034324;28;20819;-72
2021/03/26 02:07:03;;;;;;;50.67;34.00;;;8.90;99.90;;;;;;5033933;28;20419;-70
2021/03/26 02:09:34;;;;;;;55.23;33.90;;;8.90;99.90;;;;;;5031011;28;20408;-70
2021/03/26 02:12:06;;;;;;;55.37;35.37;;;9.00;99.90;;;;;;5014224;28;20920;-70
2021/03/26 02:14:45;;;;;;;54.00;34.60;;;9.00;99.90;;;;;;5013913;28;20491;-70
2021/03/26 02:17:20;;;;;;;57.77;35.03;;;9.10;99.90;;;;;;5013905;28;20439;-70
2021/03/26 02:19:58;;;;;;;51.23;34.40;;;9.10;99.90;;;;;;5033122;28;20934;-70
2021/03/26 02:22:29;;;;;;;51.47;34.57;;;9.10;99.90;;;;;;5033715;28;20394;-70
2021/03/26 02:24:54;;;;;;;53.90;34.47;;;9.10;99.90;;;;;;5033431;28;21042;-70
2021/03/26 02:27:27;;;;;;;58.77;32.53;;;9.10;99.90;;;;;;5031210;28;20501;-70
2021/03/26 02:29:53;;;;;;;51.03;32.87;;;9.10;99.90;;;;;;5026646;28;20193;-70
2021/03/26 02:32:27;;;;;;;59.70;37.00;;;9.10;99.90;;;;;;5033122;28;20445;-71
2021/03/26 02:35:17;;;;;;;49.60;32.90;;;9.10;99.90;;;;;;5033213;28;20186;-71
2021/03/26 02:38:00;;;;;;;50.50;33.00;;;9.10;99.90;;;;;;5033229;28;20424;-71
2021/03/26 02:40:38;;;;;;;47.60;31.50;;;9.10;99.90;;;;;;5033166;28;20431;-70
2021/03/26 02:43:20;;;;;;;52.23;32.43;;;9.00;99.90;;;;;;5028991;28;20497;-70
2021/03/26 02:45:53;;;;;;;49.13;32.57;;;9.00;99.90;;;;;;5032183;28;20450;-69
2021/03/26 02:48:26;;;;;;;51.90;33.00;;;9.00;99.90;;;;;;5033322;28;20410;-71
2021/03/26 02:51:26;;;;;;;46.60;31.47;;;8.90;99.90;;;;;;5032986;28;20428;-70
2021/03/26 02:54:18;;;;;;;51.47;32.70;;;8.90;99.90;;;;;;5024055;28;20426;-70
2021/03/26 02:56:54;;;;;;;52.93;33.53;;;8.80;99.90;;;;;;5029662;28;20774;-69
2021/03/26 02:59:51;;;;;;;54.57;33.97;;;8.80;99.90;;;;;;5033059;28;20494;-70
2021/03/26 03:02:20;;;;;;;45.73;31.30;;;8.70;99.90;;;;;;5032949;28;20428;-71
2021/03/26 03:04:51;;;;;;;49.57;30.40;;;8.70;99.90;;;;;;5032832;28;20456;-70
2021/03/26 03:07:27;;;;;;;56.00;35.23;;;8.70;99.90;;;;;;5032117;28;20432;-70
2021/03/26 03:10:28;;;;;;;53.13;34.17;;;8.70;99.90;;;;;;5032866;28;20414;-71
2021/03/26 03:13:08;;;;;;;54.63;34.53;;;8.70;99.90;;;;;;5020545;28;20464;-71
2021/03/26 03:15:41;;;;;;;54.47;34.80;;;8.80;99.90;;;;;;5032697;28;20410;-70
2021/03/26 03:18:16;;;;;;;56.50;35.30;;;8.80;99.90;;;;;;5032723;28;20502;-70
2021/03/26 03:20:48;;;;;;;49.50;33.07;;;8.80;99.90;;;;;;5032507;28;20433;-71
2021/03/26 03:23:21;;;;;;;54.63;32.63;;;8.80;99.90;;;;;;5032743;28;20501;-71
2021/03/26 03:25:46;;;;;;;54.60;32.77;;;8.80;99.90;;;;;;5014689;28;20458;-71
2021/03/26 03:28:21;;;;;;;63.37;37.40;;;8.90;99.90;;;;;;5032376;28;20506;-71
2021/03/26 03:31:05;;;;;;;47.30;31.90;;;8.90;99.90;;;;;;5032360;28;20200;-71
2021/03/26 03:33:52;;;;;;;47.60;31.20;;;8.90;99.90;;;;;;5032551;28;20418;-71
2021/03/26 03:36:22;;;;;;;53.77;34.23;;;9.00;99.90;;;;;;5032529;28;20775;-71
2021/03/26 03:39:08;;;;;;;50.30;34.43;;;9.00;99.90;;;;;;5032804;28;20504;-71
2021/03/26 03:41:36;;;;;;;56.97;33.13;;;9.00;99.90;;;;;;5031526;28;20440;-72
2021/03/26 03:44:18;;;;;;;46.47;31.87;;;9.00;99.90;;;;;;5025341;28;20509;-70
2021/03/26 03:46:54;;;;;;;46.77;31.20;;;9.10;99.90;;;;;;5031833;28;20509;-69
2021/03/26 03:49:30;;;;;;;55.67;34.33;;;9.10;99.90;;;;;;5032218;28;20877;-70
2021/03/26 03:52:13;;;;;;;51.20;31.60;;;9.20;99.90;;;;;;5032004;28;20477;-70
2021/03/26 03:55:04;;;;;;;60.37;36.53;;;9.30;99.90;;;;;;5032572;28;20411;-70
2021/03/26 03:57:36;;;;;;;53.47;35.53;;;9.20;99.90;;;;;;5026964;28;20480;-69
2021/03/26 04:00:17;;;;;;;54.20;35.23;;;9.20;99.90;;;;;;5032101;28;20402;-69
2021/03/26 04:03:03;;;;;;;58.07;34.27;;;9.20;99.90;;;;;;5032094;28;20413;-71
2021/03/26 04:05:35;;;;;;;49.13;33.07;;;9.30;99.90;;;;;;5028609;28;20504;-70
2021/03/26 04:08:06;;;;;;;52.00;33.50;;;9.30;99.90;;;;;;5027946;28;20829;-70
2021/03/26 04:10:40;;;;;;;52.10;32.97;;;9.30;99.90;;;;;;5032096;28;20784;-70
2021/03/26 04:13:15;;;;;;;50.77;32.23;;;9.40;99.90;;;;;;5032062;28;20410;-70
2021/03/26 04:15:59;;;;;;;54.73;35.17;;;9.40;99.90;;;;;;5031632;28;20411;-70
2021/03/26 04:18:31;;;;;;;53.10;32.40;;;9.40;99.90;;;;;;5031731;28;20403;-71
2021/03/26 04:21:24;;;;;;;52.00;32.57;;;9.40;99.90;;;;;;5031781;28;20848;-71
2021/03/26 04:23:59;;;;;;;52.20;33.70;;;9.40;99.90;;;;;;5031750;28;20905;-71
2021/03/26 04:26:33;;;;;;;51.30;33.17;;;9.40;99.90;;;;;;5031369;28;20457;-71
2021/03/26 04:29:08;;;;;;;52.30;34.03;;;9.40;99.90;;;;;;5031628;28;20421;-71
2021/03/26 04:31:41;;;;;;;61.13;34.60;;;9.40;99.90;;;;;;5031399;28;20823;-71
2021/03/26 04:34:08;;;;;;;51.97;33.70;;;9.40;99.90;;;;;;5031600;28;20890;-68
2021/03/26 04:36:46;;;;;;;59.33;35.37;;;9.50;99.90;;;;;;5031334;28;20410;-71
2021/03/26 04:39:19;;;;;;;54.40;33.60;;;9.50;99.90;;;;;;5031697;28;20492;-69
2021/03/26 04:41:52;;;;;;;56.73;34.73;;;9.50;99.90;;;;;;5031361;28;20521;-68
2021/03/26 04:44:47;;;;;;;47.67;31.93;;;9.50;99.90;;;;;;5022757;28;20949;-69
2021/03/26 04:47:27;;;;;;;50.47;31.83;;;9.50;99.90;;;;;;5015026;28;20941;-69
2021/03/26 04:49:58;;;;;;;55.53;34.70;;;9.50;99.90;;;;;;5031468;28;20390;-70
2021/03/26 04:52:36;;;;;;;56.03;34.13;;;9.50;99.90;;;;;;5031889;28;20412;-70
2021/03/26 04:55:12;;;;;;;54.23;33.30;;;9.60;99.90;;;;;;5035409;28;20895;-69
2021/03/26 04:57:47;;;;;;;61.97;37.73;;;9.60;99.90;;;;;;5035835;28;20448;-70
2021/03/26 05:00:16;;;;;;;57.03;35.87;;;9.60;99.90;;;;;;5035646;28;20898;-69
2021/03/26 05:02:46;;;;;;;59.50;34.93;;;9.60;99.90;;;;;;5034977;28;20816;-69
2021/03/26 05:05:15;;;;;;;58.37;38.50;;;9.60;99.90;;;;;;5035112;28;20458;-69
2021/03/26 05:07:44;;;;;;;48.83;35.23;;;9.70;99.90;;;;;;5034425;28;20446;-70
2021/03/26 05:10:14;;;;;;;60.90;36.70;;;9.70;99.90;;;;;;5026586;28;20411;-70
2021/03/26 05:12:48;;;;;;;57.10;33.80;;;9.70;99.90;;;;;;5035534;28;20400;-70
2021/03/26 05:16:09;;;;;;;57.10;35.20;;;9.70;99.90;;;;;;5035509;28;20410;-70
2021/03/26 05:18:51;;;;;;;48.87;34.83;;;9.80;99.90;;;;;;4939460;29;20530;-70
2021/03/26 05:21:21;;;;;;;52.87;33.77;;;9.80;99.90;;;;;;5026868;28;20524;-70
2021/03/26 05:24:06;;;;;;;57.40;31.70;;;9.80;99.90;;;;;;5034885;28;20413;-70
2021/03/26 05:26:35;;;;;;;56.00;34.83;;;9.80;99.90;;;;;;5034714;28;20473;-70
2021/03/26 05:29:03;;;;;;;52.50;35.60;;;9.80;99.90;;;;;;5034832;28;20410;-70
2021/03/26 05:31:51;;;;;;;51.13;35.20;;;9.80;99.90;;;;;;5034767;28;20429;-70
2021/03/26 05:34:23;;;;;;;49.77;35.57;;;9.80;99.90;;;;;;5024523;28;20395;-69
2021/03/26 05:37:14;;;;;;;68.13;37.77;;;9.80;99.90;;;;;;5014955;28;20404;-70
2021/03/26 05:39:42;;;;;;;56.10;37.63;;;9.80;99.90;;;;;;5014886;28;20408;-70
2021/03/26 05:42:27;;;;;;;57.90;37.00;;;9.90;99.90;;;;;;5028553;28;20792;-70
2021/03/26 05:45:11;;;;;;;56.37;35.40;;;9.80;99.90;;;;;;5031097;28;20453;-70
2021/03/26 05:47:46;;;;;;;62.73;34.43;;;9.80;99.90;;;;;;5034513;28;20425;-70
2021/03/26 05:50:42;;;;;;;53.73;38.37;;;9.90;99.90;;;;;;5034384;28;20925;-70
2021/03/26 05:53:26;;;;;;;57.63;38.07;;;9.90;99.90;;;;;;5034502;28;20471;-69
2021/03/26 05:56:31;;;;;;;55.37;37.90;;;9.80;99.90;;;;;;5034658;28;20926;-70
2021/03/26 05:59:09;;;;;;;65.53;39.20;;;9.80;99.90;;;;;;5032739;28;20416;-70
2021/03/26 06:01:48;;;;;;;53.10;35.93;;;9.70;99.90;;;;;;5041551;28;20430;-70
2021/03/26 06:04:33;;;;;;;59.87;39.83;;;9.70;99.90;;;;;;5041590;28;20506;-70
2021/03/26 06:07:35;;;;;;;57.80;38.47;;;9.70;99.90;;;;;;5037327;28;20444;-70
2021/03/26 06:10:18;;;;;;;66.97;38.67;;;9.60;99.90;;;;;;5034126;28;20489;-70
2021/03/26 06:13:21;;;;;;;61.30;36.67;;;9.70;99.90;;;;;;5034134;28;20762;-70
2021/03/26 06:15:59;;;;;;;57.87;36.67;;;9.70;99.90;;;;;;5034015;28;20975;-71
2021/03/26 06:19:03;;;;;;;65.70;37.67;;;9.70;99.90;;;;;;5033694;28;20432;-71
2021/03/26 06:21:44;;;;;;;66.83;40.13;;;9.70;99.90;;;;;;5033877;28;20476;-71
2021/03/26 06:24:41;;;;;;;55.23;37.43;;;9.70;99.90;;;;;;5033777;28;20485;-70
2021/03/26 06:27:20;;;;;;;67.73;39.67;;;9.60;99.90;;;;;;5034006;28;20402;-71
2021/03/26 06:30:17;;;;;;;59.17;37.20;;;9.70;99.90;;;;;;5033378;28;20429;-71
2021/03/26 06:32:48;;;;;;;68.87;37.93;;;9.70;99.90;;;;;;5033778;28;20521;-71
2021/03/26 06:35:48;;;;;;;65.37;39.63;;;9.80;99.90;;;;;;5033455;28;20408;-71
2021/03/26 06:38:40;;;;;;;56.07;36.33;;;9.90;99.90;;;;;;5033206;28;20402;-70
2021/03/26 06:41:35;;;;;;;68.73;40.73;;;9.90;99.90;;;;;;5027470;28;20423;-69
2021/03/26 06:44:26;;;;;;;64.80;39.00;;;9.90;99.90;;;;;;5025472;28;20436;-70
2021/03/26 06:47:23;;;;;;;58.97;38.17;;;10.00;99.90;;;;;;5033011;28;20457;-70
2021/03/26 06:50:17;;;;;;;67.90;39.87;;;10.00;99.90;;;;;;5033317;28;20398;-69
2021/03/26 06:53:09;;;;;;;57.73;38.50;;;10.00;99.90;;;;;;5033368;28;20899;-70
2021/03/26 06:56:12;;;;;;;58.60;38.27;;;10.00;99.90;;;;;;5033651;28;20485;-69
2021/03/26 06:59:03;;;;;;;67.83;37.63;;;9.90;99.90;;;;;;5032887;28;20413;-71
2021/03/26 07:01:42;;;;;;;63.83;40.20;;;10.00;99.90;;;;;;5033233;28;20825;-70
2021/03/26 07:04:25;;;;;;;60.43;36.80;;;10.00;99.90;;;;;;5033691;28;20548;-71
2021/03/26 07:07:04;;;;;;;79.37;44.37;;;10.10;99.90;;;;;;5033155;28;20537;-71
2021/03/26 07:09:32;;;;;;;65.90;38.70;;;10.20;99.90;;;;;;5033585;28;20394;-71
2021/03/26 07:12:18;;;;;;;57.50;38.80;;;10.40;99.90;;;;;;5033124;28;20518;-70
2021/03/26 07:14:59;;;;;;;57.67;37.47;;;10.50;99.90;;;;;;5032734;28;20414;-70
2021/03/26 07:17:42;;;;;;;58.70;36.93;;;10.60;99.90;;;;;;5032741;28;20406;-70
2021/03/26 07:20:31;;;;;;;55.40;38.23;;;10.80;99.90;;;;;;5024335;28;20498;-70
2021/03/26 07:23:19;;;;;;;59.70;38.07;;;10.90;99.90;;;;;;5032621;28;20497;-70
2021/03/26 07:26:20;;;;;;;52.50;37.30;;;10.90;99.90;;;;;;5032831;28;20859;-71
2021/03/26 07:29:29;;;;;;;61.33;38.33;;;11.10;99.90;;;;;;5032275;28;20409;-71
2021/03/26 07:32:18;;;;;;;59.33;38.77;;;10.90;99.90;;;;;;5032689;28;20429;-70
2021/03/26 07:35:06;;;;;;;58.80;37.07;;;11.00;99.90;;;;;;5032421;28;20433;-70
2021/03/26 07:37:32;;;;;;;56.80;36.97;;;11.30;99.90;;;;;;5032466;28;20395;-70
2021/03/26 07:40:29;;;;;;;57.50;37.80;;;11.40;99.90;;;;;;5032386;28;20421;-69
2021/03/26 07:42:57;;;;;;;64.97;37.57;;;11.30;99.90;;;;;;5029884;28;20201;-70
2021/03/26 07:45:49;;;;;;;59.27;39.03;;;11.20;99.90;;;;;;5026218;28;21024;-70
2021/03/26 07:48:39;;;;;;;63.27;35.77;;;11.30;99.90;;;;;;5012594;28;20484;-71
2021/03/26 07:51:23;;;;;;;54.30;36.57;;;11.50;99.90;;;;;;5024318;28;20779;-70
2021/03/26 07:54:16;;;;;;;63.23;36.60;;;11.50;99.90;;;;;;5032531;28;20394;-70
2021/03/26 07:57:20;;;;;;;57.20;38.33;;;11.60;99.90;;;;;;5032143;28;20900;-69
2021/03/26 08:00:18;;;;;;;59.97;39.87;;;11.40;99.90;;;;;;5007104;28;21030;-70
2021/03/26 08:03:12;;;;;;;57.50;36.13;;;11.80;99.90;;;;;;5012510;28;20414;-71
2021/03/26 08:05:51;;;;;;;59.67;39.70;;;12.50;99.90;;;;;;5012408;28;20976;-71
2021/03/26 08:08:45;;;;;;;54.70;37.63;;;13.30;99.90;;;;;;5012177;28;20484;-71
2021/03/26 08:11:16;;;;;;;60.00;39.97;;;13.60;99.90;;;;;;5012440;28;20949;-71
2021/03/26 08:14:08;;;;;;;51.67;36.03;;;14.00;99.90;;;;;;5012399;28;20510;-69
2021/03/26 08:16:59;;;;;;;55.80;36.63;;;14.50;99.90;;;;;;5013711;28;20684;-69
2021/03/26 08:19:54;;;;;;;57.43;38.80;;;14.60;99.90;;;;;;5014985;28;20417;-71
2021/03/26 08:22:41;;;;;;;52.03;37.83;;;14.40;99.90;;;;;;5012095;28;20430;-71
2021/03/26 08:25:34;;;;;;;57.40;41.30;;;14.10;99.90;;;;;;5011854;28;20453;-75
2021/03/26 08:28:35;;;;;;;55.53;37.00;;;13.20;99.90;;;;;;5011691;28;20473;-72
2021/03/26 08:31:19;;;;;;;47.53;36.67;;;12.90;99.90;;;;;;5001506;23;20518;-72
2021/03/26 08:34:17;;;;;;;56.67;38.17;;;13.30;99.90;;;;;;4990565;28;20425;-76
2021/03/26 08:37:05;;;;;;;59.20;39.00;;;13.40;99.90;;;;;;4976559;28;20490;-71
2021/03/26 08:39:48;;;;;;;54.63;37.37;;;12.90;99.90;;;;;;4975251;28;20436;-71
2021/03/26 08:42:27;;;;;;;52.23;37.17;;;13.00;99.90;;;;;;5011190;28;20438;-71
2021/03/26 08:45:01;;;;;;;57.73;39.07;;;13.20;99.90;;;;;;5011985;28;20423;-73
2021/03/26 08:47:39;;;;;;;55.47;37.53;;;13.10;99.90;;;;;;5000429;28;20415;-71
2021/03/26 08:50:23;;;;;;;53.67;37.07;;;12.70;99.90;;;;;;4990997;28;20730;-72
2021/03/26 08:53:00;;;;;;;54.60;37.57;;;12.90;99.90;;;;;;5011090;28;20982;-71
2021/03/26 08:55:38;;;;;;;58.17;38.93;;;13.10;99.90;;;;;;4992982;28;20514;-74
2021/03/26 08:58:25;;;;;;;56.33;38.20;;;13.40;99.90;;;;;;4992774;28;20412;-72
2021/03/26 09:01:14;;;;;;;52.17;36.00;;;13.60;99.90;;;;;;4992273;28;20431;-74
2021/03/26 09:04:03;;;;;;;58.80;35.30;;;13.90;99.90;;;;;;4992640;28;20396;-73
2021/03/26 09:06:52;;;;;;;52.03;34.10;;;14.00;99.90;;;;;;4991966;28;20502;-71
2021/03/26 09:09:49;;;;;;;53.60;35.00;;;14.40;99.90;;;;;;4992453;28;20910;-76
2021/03/26 09:12:37;;;;;;;52.37;35.97;;;14.50;99.90;;;;;;4992224;28;20435;-70
2021/03/26 09:15:35;;;;;;;51.93;35.43;;;15.40;99.90;;;;;;4991811;28;20443;-69
2021/03/26 09:18:29;;;;;;;50.70;35.70;;;15.60;99.90;;;;;;4996900;28;20403;-70
2021/03/26 09:21:11;;;;;;;43.77;33.87;;;15.90;99.90;;;;;;5011411;28;20780;-70
2021/03/26 09:24:14;;;;;;;50.70;35.93;;;15.70;99.90;;;;;;5011729;28;20435;-69
2021/03/26 09:26:53;;;;;;;52.87;37.70;;;15.80;99.90;;;;;;5011402;28;20777;-71
2021/03/26 09:29:34;;;;;;;45.13;36.13;;;16.60;99.90;;;;;;5011719;28;20455;-69
2021/03/26 09:32:21;;;;;;;51.93;35.60;;;16.20;99.90;;;;;;5011375;28;20453;-74
2021/03/26 09:35:00;;;;;;;50.10;36.83;;;16.50;99.90;;;;;;4993872;28;20546;-72
2021/03/26 09:37:36;;;;;;;45.53;34.93;;;16.50;99.90;;;;;;5011302;28;20415;-71
2021/03/26 09:40:12;;;;;;;41.90;32.30;;;16.60;99.90;;;;;;5012504;28;20889;-71
2021/03/26 09:42:49;;;;;;;42.77;32.17;;;17.00;99.90;;;;;;5015308;28;20929;-71
2021/03/26 09:45:24;;;;;;;50.73;36.03;;;16.80;99.90;;;;;;5014978;28;20413;-71
2021/03/26 09:48:01;;;;;;;45.53;32.17;;;16.20;99.90;;;;;;5014707;28;20417;-71
2021/03/26 09:50:48;;;;;;;39.03;31.37;;;16.40;99.90;;;;;;5015338;28;20456;-72
2021/03/26 09:53:17;;;;;;;38.60;29.07;;;16.70;99.90;;;;;;5015204;28;20928;-72
2021/03/26 09:55:44;;;;;;;43.10;32.50;;;16.90;99.90;;;;;;5015151;28;20451;-71
2021/03/26 09:58:36;;;;;;;40.57;31.93;;;16.80;99.90;;;;;;5014850;28;20402;-71
2021/03/26 10:01:20;;;;;;;42.37;32.23;;;16.70;99.90;;;;;;5014325;28;20466;-70
2021/03/26 10:03:59;;;;;;;44.30;33.43;;;16.60;99.90;;;;;;5015449;28;20470;-70
2021/03/26 10:06:56;;;;;;;44.73;33.07;;;16.20;99.90;;;;;;5019049;28;20422;-70
2021/03/26 10:09:41;;;;;;;48.33;32.67;;;16.00;99.90;;;;;;5017688;28;20964;-70
2021/03/26 10:12:20;;;;;;;41.80;30.57;;;15.80;99.90;;;;;;5015958;28;20493;-70
2021/03/26 10:14:54;;;;;;;50.03;31.93;;;15.90;99.90;;;;;;5014934;28;20416;-70
2021/03/26 10:17:46;;;;;;;44.33;30.80;;;16.00;99.90;;;;;;5014881;28;20754;-70
2021/03/26 10:20:23;;;;;;;43.47;30.43;;;16.10;99.90;;;;;;5014313;28;20495;-71
2021/03/26 10:22:50;;;;;;;44.30;31.00;;;16.20;99.90;;;;;;5014326;28;20468;-72
2021/03/26 10:25:40;;;;;;;44.27;29.67;;;16.00;99.90;;;;;;5014223;28;20409;-70
2021/03/26 10:28:44;;;;;;;38.53;28.37;;;15.70;99.90;;;;;;5014052;28;20516;-71
2021/03/26 10:31:17;;;;;;;45.10;30.37;;;15.60;99.90;;;;;;5013892;28;20488;-70
2021/03/26 10:33:51;;;;;;;37.30;28.40;;;15.30;99.90;;;;;;5014152;28;20403;-71
2021/03/26 10:36:33;;;;;;;44.90;30.40;;;15.40;99.90;;;;;;5013887;28;20443;-70
2021/03/26 10:39:11;;;;;;;41.63;29.47;;;15.50;99.90;;;;;;5014486;28;20405;-70
2021/03/26 10:41:50;;;;;;;39.20;28.00;;;15.40;99.90;;;;;;5013335;28;20447;-70
2021/03/26 10:44:41;;;;;;;37.93;28.03;;;15.50;99.90;;;;;;5011607;28;20456;-70
2021/03/26 10:47:26;;;;;;;43.33;27.70;;;15.50;99.90;;;;;;4994964;28;20558;-70
2021/03/26 10:50:14;;;;;;;43.40;27.60;;;15.60;99.90;;;;;;5013901;28;20459;-70
2021/03/26 10:52:52;;;;;;;38.70;26.97;;;15.80;99.90;;;;;;5013647;28;20413;-70
2021/03/26 10:55:23;;;;;;;40.83;27.23;;;16.20;99.90;;;;;;5013736;28;20455;-70
2021/03/26 10:58:07;;;;;;;38.63;27.07;;;15.70;99.90;;;;;;5013537;28;20428;-70
2021/03/26 11:00:43;;;;;;;43.73;27.93;;;15.60;99.90;;;;;;5013448;28;20484;-69
2021/03/26 11:03:24;;;;;;;38.83;28.33;;;16.00;99.90;;;;;;5013657;28;20398;-71
2021/03/26 11:05:59;;;;;;;36.07;26.13;;;16.00;99.90;;;;;;5014024;28;20412;-70
2021/03/26 11:08:28;;;;;;;38.73;27.87;;;16.30;99.90;;;;;;5014186;28;20400;-69
2021/03/26 11:11:24;;;;;;;38.67;26.20;;;16.30;99.90;;;;;;5013613;28;20438;-69
2021/03/26 11:14:05;;;;;;;41.17;28.03;;;16.10;99.90;;;;;;5005651;28;20438;-70
2021/03/26 11:16:41;;;;;;;37.43;26.20;;;16.30;99.90;;;;;;4993649;28;20813;-70
2021/03/26 11:19:28;;;;;;;42.20;27.83;;;16.60;99.90;;;;;;4993807;28;20775;-70
2021/03/26 11:22:01;;;;;;;34.67;25.10;;;16.40;99.90;;;;;;4993548;28;20859;-69
2021/03/26 11:24:38;;;;;;;39.07;28.70;;;16.50;99.90;;;;;;4993475;28;20909;-70
2021/03/26 11:27:14;;;;;;;40.10;27.50;;;16.40;99.90;;;;;;4993569;28;20413;-69
2021/03/26 11:29:45;;;;;;;37.90;25.90;;;16.20;99.90;;;;;;4993427;28;20913;-69
2021/03/26 11:32:23;;;;;;;34.03;23.70;;;16.10;99.90;;;;;;4993399;28;20458;-71
2021/03/26 11:34:59;;;;;;;32.87;24.47;;;16.20;99.90;;;;;;4993380;28;20400;-71
2021/03/26 11:37:45;;;;;;;37.20;27.33;;;16.50;99.90;;;;;;4993272;28;20398;-71
2021/03/26 11:40:16;;;;;;;37.13;25.17;;;16.00;99.90;;;;;;4993417;28;20406;-71
2021/03/26 11:42:49;;;;;;;40.17;26.80;;;15.90;99.90;;;;;;4993258;28;20414;-72
2021/03/26 11:45:29;;;;;;;37.53;27.37;;;16.10;99.90;;;;;;4993471;28;20437;-71
2021/03/26 11:48:05;;;;;;;40.53;28.47;;;16.00;99.90;;;;;;4993256;28;20409;-71
2021/03/26 11:50:38;;;;;;;41.07;28.00;;;15.80;99.90;;;;;;4993280;28;20422;-72
2021/03/26 11:53:34;;;;;;;35.17;24.80;;;16.10;99.90;;;;;;4993233;28;20422;-71
2021/03/26 11:56:21;;;;;;;37.87;25.50;;;16.10;99.90;;;;;;4993400;28;20965;-71
2021/03/26 11:58:52;;;;;;;35.90;26.40;;;16.40;99.90;;;;;;4993042;28;20437;-72
2021/03/26 12:01:26;;;;;;;36.60;25.03;;;16.60;99.90;;;;;;4993041;28;20430;-71
2021/03/26 12:04:02;;;;;;;38.33;27.53;;;16.90;99.90;;;;;;4992459;28;20410;-70
2021/03/26 12:06:39;;;;;;;33.40;24.83;;;16.50;99.90;;;;;;4992753;28;20457;-70
2021/03/26 12:09:20;;;;;;;38.27;26.90;;;16.30;99.90;;;;;;4993038;28;20414;-69
2021/03/26 12:12:04;;;;;;;37.87;27.17;;;16.30;99.90;;;;;;4992800;28;20423;-70
2021/03/26 12:14:47;;;;;;;38.77;25.37;;;16.20;99.90;;;;;;4993085;28;20411;-72
2021/03/26 12:17:21;;;;;;;36.97;26.80;;;16.50;99.90;;;;;;4993212;28;20422;-72
2021/03/26 12:19:48;;;;;;;41.73;26.20;;;16.20;99.90;;;;;;4992790;28;20410;-73
2021/03/26 12:22:30;;;;;;;40.23;26.60;;;16.00;99.90;;;;;;4992433;28;20492;-70
2021/03/26 12:25:09;;;;;;;38.90;26.10;;;16.30;99.90;;;;;;4992942;28;20946;-71
2021/03/26 12:28:01;;;;;;;50.80;26.90;;;16.40;99.90;;;;;;4992617;28;20395;-71
2021/03/26 12:30:42;;;;;;;42.47;26.70;;;16.50;99.90;;;;;;4969396;28;20458;-71
2021/03/26 12:33:16;;;;;;;35.50;28.73;;;16.30;99.90;;;;;;4975202;28;20466;-70
2021/03/26 12:35:55;;;;;;;40.43;26.50;;;16.50;99.90;;;;;;4992612;28;20461;-70
2021/03/26 12:38:48;;;;;;;37.80;24.50;;;16.30;99.90;;;;;;4992356;28;20439;-70
2021/03/26 12:41:51;;;;;;;39.17;27.23;;;16.30;99.90;;;;;;4992549;28;20462;-71
2021/03/26 12:44:24;;;;;;;37.53;26.70;;;16.20;99.90;;;;;;4992438;28;20491;-72
2021/03/26 12:47:01;;;;;;;41.70;28.63;;;16.00;99.90;;;;;;4992419;28;20404;-69
2021/03/26 12:49:52;;;;;;;41.30;29.27;;;16.20;99.90;;;;;;4992229;28;20422;-71
2021/03/26 12:52:33;;;;;;;39.97;28.67;;;16.30;99.90;;;;;;4964438;28;20560;-70
2021/03/26 12:55:17;;;;;;;42.33;27.70;;;16.30;99.90;;;;;;4992392;28;20882;-70
2021/03/26 12:58:05;;;;;;;38.70;27.17;;;16.40;99.90;;;;;;4992730;28;20418;-70
2021/03/26 13:00:46;;;;;;;45.70;30.00;;;16.50;99.90;;;;;;4992589;28;20525;-70
2021/03/26 13:03:16;;;;;;;44.87;29.07;;;16.50;99.90;;;;;;4992574;28;20414;-70
2021/03/26 13:05:47;;;;;;;38.47;26.80;;;16.10;99.90;;;;;;4992344;28;20456;-70
2021/03/26 13:08:19;;;;;;;37.47;28.33;;;16.20;99.90;;;;;;4992291;28;20414;-71
2021/03/26 13:10:53;;;;;;;36.47;28.30;;;16.50;99.90;;;;;;4992467;28;20434;-69
2021/03/26 13:13:30;;;;;;;45.80;30.17;;;16.50;99.90;;;;;;5007940;28;20901;-71
2021/03/26 13:16:30;;;;;;;43.67;28.83;;;15.90;99.90;;;;;;4996263;28;20481;-70
2021/03/26 13:18:59;;;;;;;40.03;29.57;;;15.70;99.90;;;;;;4996299;28;20824;-70
2021/03/26 13:21:43;;;;;;;40.00;27.67;;;15.70;99.90;;;;;;4996023;28;20800;-70
2021/03/26 13:24:26;;;;;;;40.30;27.83;;;15.90;99.90;;;;;;4996025;28;20520;-71
2021/03/26 13:27:13;;;;;;;42.73;27.80;;;16.00;99.90;;;;;;4979247;28;20421;-70
2021/03/26 13:29:41;;;;;;;42.47;28.70;;;15.90;99.90;;;;;;4995889;28;20440;-71
2021/03/26 13:32:08;;;;;;;44.73;30.93;;;15.70;99.90;;;;;;4995816;28;20463;-72
2021/03/26 13:34:39;;;;;;;41.50;29.80;;;15.80;99.90;;;;;;4995925;28;20420;-70